createdAt,value
2022-12-24T00:02:48.335Z,4.40
2022-12-24T00:05:51.289Z,4.32
2022-12-24T00:08:53.807Z,4.33
2022-12-24T00:11:56.631Z,4.40
2022-12-24T00:14:59.260Z,4.42
2022-12-24T00:18:01.779Z,4.40
2022-12-24T00:21:06.836Z,4.45
2022-12-24T00:24:09.359Z,4.36
2022-12-24T00:27:12.164Z,4.46
2022-12-24T00:30:16.616Z,4.59
2022-12-24T00:33:24.319Z,4.74
2022-12-24T00:36:27.076Z,4.71
2022-12-24T00:39:29.573Z,4.66
2022-12-24T00:42:31.988Z,4.69
2022-12-24T00:45:34.472Z,4.61
2022-12-24T00:48:36.939Z,4.55
2022-12-24T00:51:40.059Z,4.63
2022-12-24T00:54:42.591Z,4.55
2022-12-24T00:57:45.006Z,4.55
2022-12-24T01:00:52.187Z,4.43
2022-12-24T01:04:13.909Z,4.56
2022-12-24T01:07:16.334Z,4.59
2022-12-24T01:10:20.321Z,4.62
2022-12-24T01:13:22.958Z,4.50
2022-12-24T01:16:25.558Z,4.47
2022-12-24T01:19:28.082Z,4.40
2022-12-24T01:22:30.550Z,4.49
2022-12-24T01:25:33.023Z,4.33
2022-12-24T01:28:35.688Z,4.46
2022-12-24T01:31:38.277Z,4.42
2022-12-24T01:34:41.269Z,4.43
2022-12-24T01:37:43.713Z,4.56
2022-12-24T01:41:08.444Z,4.60
2022-12-24T01:44:35.760Z,4.71
2022-12-24T01:47:39.334Z,4.67
2022-12-24T01:50:43.115Z,4.62
2022-12-24T01:53:49.596Z,4.54
2022-12-24T01:56:57.145Z,4.73
2022-12-24T02:00:06.336Z,4.60
2022-12-24T02:03:10.430Z,4.66
2022-12-24T02:06:18.051Z,4.76
2022-12-24T02:09:21.234Z,4.82
2022-12-24T02:12:25.074Z,4.79
2022-12-24T02:15:44.466Z,4.60
2022-12-24T02:19:02.179Z,4.74
2022-12-24T02:22:09.614Z,4.65
2022-12-24T02:25:15.192Z,4.75
2022-12-24T02:28:23.534Z,4.81
2022-12-24T02:31:37.565Z,4.75
2022-12-24T02:34:54.157Z,4.55
2022-12-24T02:38:08.502Z,4.40
2022-12-24T02:41:20.581Z,4.53
2022-12-24T02:44:26.633Z,4.49
2022-12-24T02:47:34.029Z,4.56
2022-12-24T02:50:38.207Z,4.42
2022-12-24T02:53:41.265Z,4.61
2022-12-24T02:56:43.753Z,4.73
2022-12-24T02:59:56.277Z,4.66
2022-12-24T03:03:13.733Z,4.80
2022-12-24T03:06:53.580Z,4.84
2022-12-24T03:10:08.146Z,4.83
2022-12-24T03:13:16.116Z,4.89
2022-12-24T03:16:24.713Z,4.92
2022-12-24T03:19:28.010Z,4.96
2022-12-24T03:22:33.205Z,4.94
2022-12-24T03:25:40.386Z,4.83
2022-12-24T03:28:43.921Z,4.94
2022-12-24T03:31:52.825Z,4.76
2022-12-24T03:34:55.753Z,4.79
2022-12-24T03:37:58.203Z,4.84
2022-12-24T03:41:06.508Z,4.87
2022-12-24T03:44:08.957Z,4.77
2022-12-24T03:47:11.575Z,4.92
2022-12-24T03:50:14.065Z,4.96
2022-12-24T03:53:16.524Z,5.13
2022-12-24T03:56:19.232Z,5.10
2022-12-24T03:59:21.912Z,5.24
2022-12-24T04:02:24.683Z,5.37
2022-12-24T04:05:27.361Z,5.34
2022-12-24T04:08:29.860Z,5.29
2022-12-24T04:11:32.657Z,5.28
2022-12-24T04:14:36.447Z,5.31
2022-12-24T04:17:39.157Z,5.32
2022-12-24T04:20:44.229Z,5.31
2022-12-24T04:23:47.979Z,5.33
2022-12-24T04:26:50.466Z,5.33
2022-12-24T04:29:52.897Z,5.40
2022-12-24T04:32:55.312Z,5.42
2022-12-24T04:35:58.813Z,5.40
2022-12-24T04:39:01.517Z,5.36
2022-12-24T04:42:05.272Z,5.23
2022-12-24T04:45:08.382Z,5.34
2022-12-24T04:48:10.818Z,5.16
2022-12-24T04:51:14.081Z,5.24
2022-12-24T04:54:16.529Z,5.19
2022-12-24T04:57:18.977Z,5.12
2022-12-24T05:00:21.727Z,4.99
2022-12-24T05:03:24.721Z,4.89
2022-12-24T05:06:31.294Z,4.89
2022-12-24T05:09:33.783Z,4.87
2022-12-24T05:12:36.105Z,4.76
2022-12-24T05:15:38.525Z,4.71
2022-12-24T05:18:41.019Z,4.66
2022-12-24T05:21:43.628Z,4.61
2022-12-24T05:25:04.450Z,4.68
2022-12-24T05:28:06.962Z,4.66
2022-12-24T05:31:09.628Z,4.67
2022-12-24T05:34:13.619Z,4.68
2022-12-24T05:37:16.030Z,4.63
2022-12-24T05:40:18.786Z,4.61
2022-12-24T05:43:21.186Z,4.66
2022-12-24T05:46:25.067Z,4.59
2022-12-24T05:49:28.893Z,4.55
2022-12-24T05:52:31.317Z,4.51
2022-12-24T05:55:34.649Z,4.41
2022-12-24T05:58:38.362Z,4.36
2022-12-24T06:01:40.953Z,4.34
2022-12-24T06:04:43.551Z,4.36
2022-12-24T06:07:46.162Z,4.37
2022-12-24T06:10:56.977Z,4.41
2022-12-24T06:13:59.490Z,4.47
2022-12-24T06:17:01.986Z,4.54
2022-12-24T06:20:05.165Z,4.53
2022-12-24T06:23:09.476Z,4.55
2022-12-24T06:26:15.024Z,4.62
2022-12-24T06:29:17.417Z,4.51
2022-12-24T06:32:20.920Z,4.58
2022-12-24T06:35:23.373Z,4.56
2022-12-24T06:38:26.107Z,4.68
2022-12-24T06:41:28.956Z,4.76
2022-12-24T06:44:31.491Z,4.75
2022-12-24T06:47:34.177Z,4.78
2022-12-24T06:50:38.397Z,4.80
2022-12-24T06:53:41.186Z,4.89
2022-12-24T06:56:43.717Z,4.96
2022-12-24T06:59:46.184Z,5.02
2022-12-24T07:02:48.771Z,4.90
2022-12-24T07:05:51.474Z,4.89
2022-12-24T07:08:54.304Z,4.89
2022-12-24T07:11:56.927Z,4.97
2022-12-24T07:14:59.423Z,5.08
2022-12-24T07:18:01.920Z,5.15
2022-12-24T07:21:07.614Z,5.34
2022-12-24T07:24:10.351Z,5.33
2022-12-24T07:27:13.023Z,5.45
2022-12-24T07:30:16.555Z,5.47
2022-12-24T07:33:19.135Z,5.50
2022-12-24T07:36:22.178Z,5.68
2022-12-24T07:39:24.831Z,5.77
2022-12-24T07:42:27.666Z,5.78
2022-12-24T07:45:30.731Z,5.76
2022-12-24T07:48:33.364Z,5.98
2022-12-24T07:51:36.520Z,6.15
2022-12-24T07:54:39.735Z,6.17
2022-12-24T07:57:42.189Z,6.63
2022-12-24T08:00:45.991Z,6.73
2022-12-24T08:03:48.529Z,6.74
2022-12-24T08:06:51.103Z,6.75
2022-12-24T08:09:53.575Z,6.74
2022-12-24T08:12:56.078Z,6.67
2022-12-24T08:15:59.372Z,6.80
2022-12-24T08:19:01.924Z,6.84
2022-12-24T08:22:04.449Z,6.76
2022-12-24T08:25:07.624Z,6.95
2022-12-24T08:28:10.663Z,7.14
2022-12-24T08:31:16.424Z,7.46
2022-12-24T08:34:19.152Z,7.53
2022-12-24T08:37:21.592Z,7.92
2022-12-24T08:40:24.828Z,8.03
2022-12-24T08:43:27.771Z,8.17
2022-12-24T08:46:30.487Z,8.38
2022-12-24T08:49:33.053Z,8.46
2022-12-24T08:52:36.128Z,8.53
2022-12-24T08:55:39.578Z,8.69
2022-12-24T08:58:42.652Z,8.70
2022-12-24T09:01:45.861Z,8.98
2022-12-24T09:04:48.950Z,8.99
2022-12-24T09:07:51.891Z,9.18
2022-12-24T09:10:56.207Z,9.34
2022-12-24T09:13:58.823Z,9.46
2022-12-24T09:17:01.423Z,9.42
2022-12-24T09:20:07.133Z,9.63
2022-12-24T09:23:09.867Z,9.85
2022-12-24T09:26:16.686Z,9.98
2022-12-24T09:29:19.180Z,10.36
2022-12-24T09:32:22.281Z,10.60
2022-12-24T09:35:24.803Z,10.63
2022-12-24T09:38:27.724Z,10.29
2022-12-24T09:41:45.126Z,10.50
2022-12-24T09:44:58.973Z,10.66
2022-12-24T09:48:14.183Z,10.62
2022-12-24T09:51:49.088Z,11.17
2022-12-24T09:55:02.055Z,11.48
2022-12-24T09:58:06.816Z,11.57
2022-12-24T10:01:14.936Z,11.55
2022-12-24T10:04:20.541Z,11.69
2022-12-24T10:08:10.514Z,11.69
2022-12-24T10:11:23.873Z,11.66
2022-12-24T10:14:48.165Z,11.63
2022-12-24T10:18:29.367Z,11.68
2022-12-24T10:21:51.063Z,11.63
2022-12-24T10:25:20.604Z,11.82
2022-12-24T10:28:32.324Z,12.11
2022-12-24T10:31:50.232Z,12.10
2022-12-24T10:35:06.408Z,12.16
2022-12-24T10:38:09.371Z,12.17
2022-12-24T10:41:14.271Z,12.27
2022-12-24T10:44:22.702Z,12.34
2022-12-24T10:47:25.903Z,12.49
2022-12-24T10:50:41.076Z,12.54
2022-12-24T10:53:48.893Z,12.47
2022-12-24T10:56:56.485Z,12.80
2022-12-24T10:59:59.043Z,13.04
2022-12-24T11:03:22.441Z,13.40
2022-12-24T11:06:24.986Z,13.38
2022-12-24T11:09:41.631Z,13.44
2022-12-24T11:13:05.814Z,13.47
2022-12-24T11:16:30.189Z,13.64
2022-12-24T11:19:38.795Z,13.52
2022-12-24T11:22:42.278Z,13.53
2022-12-24T11:25:50.934Z,13.57
2022-12-24T11:29:08.598Z,13.64
2022-12-24T11:32:18.646Z,13.69
2022-12-24T11:35:23.748Z,13.62
2022-12-24T11:38:28.380Z,13.69
2022-12-24T11:41:37.611Z,13.81
2022-12-24T11:44:48.906Z,13.79
2022-12-24T11:47:52.444Z,13.84
2022-12-24T11:51:04.579Z,13.98
2022-12-24T11:54:09.633Z,14.09
2022-12-24T11:57:17.180Z,14.14
2022-12-24T12:00:19.781Z,14.12
2022-12-24T12:03:30.744Z,14.05
2022-12-24T12:06:45.537Z,14.10
2022-12-24T12:09:53.453Z,13.90
2022-12-24T12:13:16.479Z,13.86
2022-12-24T12:16:24.845Z,13.70
2022-12-24T12:19:33.349Z,13.76
2022-12-24T12:23:00.296Z,13.84
2022-12-24T12:26:12.998Z,13.80
2022-12-24T12:29:33.397Z,13.69
2022-12-24T12:32:49.230Z,13.65
2022-12-24T12:35:54.455Z,13.60
2022-12-24T12:38:57.028Z,14.05
2022-12-24T12:42:15.485Z,13.77
2022-12-24T12:45:43.675Z,13.58
2022-12-24T12:49:02.501Z,13.47
2022-12-24T12:52:40.110Z,15.42
2022-12-24T12:55:45.285Z,18.34
2022-12-24T12:59:01.094Z,20.07
2022-12-24T13:02:25.311Z,18.71
2022-12-24T13:05:57.580Z,21.60
2022-12-24T13:09:18.547Z,22.43
2022-12-24T13:13:02.594Z,21.68
2022-12-24T13:16:39.418Z,20.44
2022-12-24T13:19:55.925Z,19.71
2022-12-24T13:23:11.505Z,20.09
2022-12-24T13:26:15.311Z,18.65
2022-12-24T13:30:06.962Z,17.83
2022-12-24T13:33:14.010Z,16.79
2022-12-24T13:36:18.354Z,17.88
2022-12-24T13:39:20.819Z,18.72
2022-12-24T13:42:50.232Z,17.07
2022-12-24T13:45:52.795Z,16.40
2022-12-24T13:48:55.348Z,15.86
2022-12-24T13:52:13.039Z,17.56
2022-12-24T13:55:17.509Z,18.06
2022-12-24T13:58:21.547Z,17.23
2022-12-24T14:01:37.179Z,17.95
2022-12-24T14:04:42.321Z,18.68
2022-12-24T14:07:50.268Z,18.90
2022-12-24T14:11:17.028Z,19.01
2022-12-24T14:14:36.312Z,18.83
2022-12-24T14:17:40.627Z,18.57
2022-12-24T14:20:44.068Z,17.46
2022-12-24T14:24:32.035Z,15.55
2022-12-24T14:27:43.105Z,14.36
2022-12-24T14:30:45.607Z,13.98
2022-12-24T14:33:48.380Z,13.72
2022-12-24T14:36:54.018Z,13.39
2022-12-24T14:39:57.506Z,13.27
2022-12-24T14:43:24.548Z,12.91
2022-12-24T14:47:02.284Z,12.76
2022-12-24T14:50:30.387Z,12.43
2022-12-24T14:53:51.660Z,12.51
2022-12-24T14:57:12.330Z,12.34
2022-12-24T15:00:20.581Z,12.13
2022-12-24T15:03:27.245Z,12.00
2022-12-24T15:06:34.763Z,11.82
2022-12-24T15:09:40.862Z,11.84
2022-12-24T15:12:44.000Z,11.57
2022-12-24T15:15:52.555Z,11.45
2022-12-24T15:19:02.209Z,11.18
2022-12-24T15:22:09.584Z,11.06
2022-12-24T15:25:32.838Z,10.86
2022-12-24T15:28:38.329Z,10.63
2022-12-24T15:31:40.807Z,10.37
2022-12-24T15:34:45.637Z,10.35
2022-12-24T15:37:48.528Z,10.27
2022-12-24T15:40:51.537Z,10.20
2022-12-24T15:43:59.352Z,10.55
2022-12-24T15:47:04.910Z,10.54
2022-12-24T15:50:23.638Z,10.56
2022-12-24T15:53:31.310Z,10.59
2022-12-24T15:56:39.704Z,10.49
2022-12-24T15:59:42.859Z,10.44
2022-12-24T16:02:46.109Z,10.39
2022-12-24T16:05:59.543Z,10.50
2022-12-24T16:09:36.794Z,10.41
2022-12-24T16:12:39.637Z,10.32
2022-12-24T16:16:04.922Z,10.29
2022-12-24T16:19:16.576Z,10.29
2022-12-24T16:22:35.264Z,10.03
2022-12-24T16:25:37.885Z,10.23
2022-12-24T16:28:41.021Z,10.35
2022-12-24T16:31:58.120Z,10.34
2022-12-24T16:35:02.395Z,10.44
2022-12-24T16:38:05.452Z,10.39
2022-12-24T16:41:07.908Z,10.25
2022-12-24T16:44:10.302Z,10.49
2022-12-24T16:47:18.393Z,10.34
2022-12-24T16:50:20.865Z,10.32
2022-12-24T16:53:23.545Z,10.43
2022-12-24T16:56:26.077Z,10.43
2022-12-24T16:59:28.616Z,10.54
2022-12-24T17:02:31.363Z,10.58
2022-12-24T17:05:37.645Z,10.39
2022-12-24T17:08:40.186Z,10.33
2022-12-24T17:11:43.459Z,10.19
2022-12-24T17:14:45.831Z,10.15
2022-12-24T17:17:48.221Z,10.06
2022-12-24T17:20:59.532Z,10.03
2022-12-24T17:24:02.311Z,10.24
2022-12-24T17:27:04.756Z,10.09
2022-12-24T17:30:09.736Z,10.16
2022-12-24T17:33:14.918Z,10.03
2022-12-24T17:36:18.980Z,9.86
2022-12-24T17:39:27.420Z,9.68
2022-12-24T17:42:30.412Z,9.61
2022-12-24T17:45:32.919Z,9.51
2022-12-24T17:48:35.402Z,9.39
2022-12-24T17:51:44.854Z,9.32
2022-12-24T17:54:47.945Z,9.16
2022-12-24T17:57:50.497Z,9.09
2022-12-24T18:00:53.075Z,9.02
2022-12-24T18:03:57.256Z,8.90
2022-12-24T18:07:02.782Z,9.06
2022-12-24T18:10:06.165Z,8.84
2022-12-24T18:13:12.684Z,8.93
2022-12-24T18:16:21.130Z,8.99
2022-12-24T18:19:23.840Z,8.93
2022-12-24T18:22:26.285Z,8.76
2022-12-24T18:25:28.765Z,8.74
2022-12-24T18:28:32.406Z,8.77
2022-12-24T18:31:35.643Z,8.52
2022-12-24T18:34:38.132Z,8.28
2022-12-24T18:37:41.164Z,8.07
2022-12-24T18:40:43.661Z,7.82
2022-12-24T18:43:46.276Z,7.62
2022-12-24T18:46:48.859Z,7.62
2022-12-24T18:49:51.471Z,7.40
2022-12-24T18:52:53.986Z,7.54
2022-12-24T18:56:01.642Z,7.34
2022-12-24T18:59:04.686Z,7.19
2022-12-24T19:02:07.705Z,7.13
2022-12-24T19:05:10.298Z,7.24
2022-12-24T19:11:37.304Z,7.73
2022-12-24T19:14:39.969Z,7.97
2022-12-24T19:17:42.813Z,8.39
2022-12-24T19:20:45.393Z,8.98
2022-12-24T19:23:48.887Z,9.23
2022-12-24T19:26:51.311Z,9.33
2022-12-24T19:29:53.843Z,9.30
2022-12-24T19:32:56.496Z,9.37
2022-12-24T19:36:05.211Z,9.27
2022-12-24T19:39:08.214Z,9.36
2022-12-24T19:42:11.729Z,9.38
2022-12-24T19:45:14.245Z,9.14
2022-12-24T19:48:16.828Z,9.36
2022-12-24T19:51:20.077Z,9.46
2022-12-24T19:54:22.526Z,9.39
2022-12-24T19:57:24.994Z,9.19
2022-12-24T20:00:27.498Z,9.32
2022-12-24T20:03:30.950Z,9.23
2022-12-24T20:06:35.419Z,9.27
2022-12-24T20:09:39.535Z,9.21
2022-12-24T20:12:42.228Z,9.16
2022-12-24T20:15:45.255Z,9.08
2022-12-24T20:18:52.984Z,9.01
2022-12-24T20:21:55.545Z,8.93
2022-12-24T20:24:58.034Z,9.01
2022-12-24T20:28:00.822Z,8.85
2022-12-24T20:31:10.920Z,8.98
2022-12-24T20:34:13.415Z,9.09
2022-12-24T20:37:15.946Z,9.16
2022-12-24T20:40:18.853Z,9.11
2022-12-24T20:43:24.528Z,9.16
2022-12-24T20:46:28.549Z,9.21
2022-12-24T20:49:31.892Z,9.29
2022-12-24T20:52:34.641Z,9.12
2022-12-24T20:55:37.331Z,8.93
2022-12-24T20:58:39.931Z,8.69
2022-12-24T21:01:42.761Z,8.52
2022-12-24T21:04:45.341Z,8.36
2022-12-24T21:07:48.059Z,8.43
2022-12-24T21:11:11.144Z,8.47
2022-12-24T21:14:14.594Z,8.38
2022-12-24T21:17:17.072Z,8.23
2022-12-24T21:20:21.657Z,8.05
2022-12-24T21:23:24.052Z,7.86
2022-12-24T21:26:26.698Z,7.62
2022-12-24T21:29:29.519Z,7.38
2022-12-24T21:32:32.124Z,7.17
2022-12-24T21:35:34.519Z,7.03
2022-12-24T21:38:37.414Z,6.83
2022-12-24T21:41:39.947Z,6.69
2022-12-24T21:44:42.373Z,6.45
2022-12-24T21:47:44.823Z,6.46
2022-12-24T21:50:57.347Z,6.30
2022-12-24T21:54:18.724Z,6.18
2022-12-24T21:57:39.623Z,6.22
2022-12-24T22:00:42.478Z,7.08
2022-12-24T22:03:49.413Z,7.31
2022-12-24T22:07:11.504Z,7.19
2022-12-24T22:10:32.867Z,7.07
2022-12-24T22:13:35.603Z,7.15
2022-12-24T22:16:37.999Z,6.85
2022-12-24T22:19:41.330Z,6.62
2022-12-24T22:22:43.729Z,6.28
2022-12-24T22:25:46.688Z,6.12
2022-12-24T22:28:49.381Z,6.24
2022-12-24T22:31:51.753Z,6.03
2022-12-24T22:34:54.194Z,6.07
2022-12-24T22:38:00.173Z,6.25
2022-12-24T22:41:09.489Z,6.34
2022-12-24T22:44:11.911Z,6.24
2022-12-24T22:47:14.417Z,6.18
2022-12-24T22:50:17.791Z,6.25
2022-12-24T22:53:20.194Z,6.15
2022-12-24T22:56:23.226Z,6.59
2022-12-24T22:59:26.072Z,6.34
2022-12-24T23:02:29.282Z,6.34
2022-12-24T23:05:31.980Z,6.26
2022-12-24T23:08:36.893Z,6.13
2022-12-24T23:11:40.680Z,5.87
2022-12-24T23:14:58.085Z,5.84
2022-12-24T23:18:00.497Z,5.72
2022-12-24T23:21:06.745Z,5.71
2022-12-24T23:24:11.127Z,5.67
2022-12-24T23:27:13.764Z,5.53
2022-12-24T23:30:16.560Z,5.63
2022-12-24T23:33:19.126Z,5.60
2022-12-24T23:36:21.638Z,5.44
2022-12-24T23:39:24.358Z,5.52
2022-12-24T23:42:26.808Z,5.42
2022-12-24T23:45:29.241Z,5.47
2022-12-24T23:48:31.752Z,5.47
2022-12-24T23:51:35.589Z,5.62
2022-12-24T23:54:38.135Z,5.51
2022-12-24T23:57:40.613Z,5.56
